Time;durP1;ratioP1;P1;durP2;ratioP2;P2;SDS_P1;SDS_P2;PMS_P1;PMS_P2;Temp;Humidity;BMP_temperature;BMP_pressure;BME280_temperature;BME280_humidity;BME280_pressure;Samples;Min_cycle;Max_cycle;Signal;HPM_P1;HPM_P2
2021/01/27 00:00:59;;;;;;;;;;;3.30;96.10;;;;;;5115890;27;20375;-81
2021/01/27 00:03:24;;;;;;;;;;;3.30;96.10;;;;;;5100133;28;19969;-81
2021/01/27 00:05:51;;;;;;;;;;;3.30;96.30;;;;;;5115192;27;19911;-81
2021/01/27 00:08:17;;;;;;;;;;;3.30;96.20;;;;;;5114342;27;19961;-82
2021/01/27 00:10:42;;;;;;;;;;;3.30;96.10;;;;;;5113312;28;19908;-81
2021/01/27 00:13:10;;;;;;;;;;;3.20;96.10;;;;;;5113868;28;19915;-81
2021/01/27 00:15:37;;;;;;;;;;;3.30;96.10;;;;;;5113352;27;19957;-80
2021/01/27 00:18:03;;;;;;;;;;;3.20;96.30;;;;;;5098344;28;19911;-81
2021/01/27 00:20:29;;;;;;;;;;;3.20;96.20;;;;;;5094990;28;20006;-81
2021/01/27 00:22:55;;;;;;;;;;;3.20;96.30;;;;;;5113858;27;20474;-81
2021/01/27 00:25:22;;;;;;;;;;;3.10;96.10;;;;;;5094975;28;19999;-81
2021/01/27 00:27:48;;;;;;;;;;;3.10;96.10;;;;;;5118087;28;19915;-82
2021/01/27 00:30:14;;;;;;;;;;;3.10;96.10;;;;;;5115227;28;19916;-81
2021/01/27 00:32:40;;;;;;;;;;;3.10;96.20;;;;;;5116308;28;19908;-81
2021/01/27 00:35:06;;;;;;;;;;;3.10;96.00;;;;;;5098811;28;19952;-81
2021/01/27 00:37:32;;;;;;;;;;;3.10;95.80;;;;;;5096875;27;20371;-81
2021/01/27 00:39:57;;;;;;;;;;;3.10;95.80;;;;;;5117612;28;19908;-82
2021/01/27 00:42:22;;;;;;;;;;;3.10;95.60;;;;;;5098800;28;20488;-81
2021/01/27 00:44:48;;;;;;;;;;;3.10;95.60;;;;;;5122314;27;19911;-81
2021/01/27 00:47:13;;;;;;;;;;;3.00;95.60;;;;;;5118905;27;19912;-82
2021/01/27 00:49:39;;;;;;;;;;;3.10;95.40;;;;;;5102006;27;19947;-81
2021/01/27 00:52:04;;;;;;;;;;;3.10;95.30;;;;;;5118681;27;19962;-81
2021/01/27 00:54:30;;;;;;;;;;;3.00;95.50;;;;;;5117779;27;19947;-81
2021/01/27 00:56:55;;;;;;;;;;;3.10;95.40;;;;;;5117125;27;20402;-82
2021/01/27 00:59:21;;;;;;;;;;;3.00;95.40;;;;;;5116873;27;20389;-81
2021/01/27 01:01:46;;;;;;;;;;;3.10;95.30;;;;;;5122091;27;19918;-81
2021/01/27 01:04:12;;;;;;;;;;;3.10;95.20;;;;;;5118889;27;20347;-82
2021/01/27 01:06:37;;;;;;;;;;;3.10;95.30;;;;;;5119673;27;19929;-81
2021/01/27 01:09:03;;;;;;;;;;;3.10;95.40;;;;;;5117832;27;19908;-81
2021/01/27 01:11:28;;;;;;;;;;;3.10;95.60;;;;;;5116668;28;19912;-81
2021/01/27 01:13:54;;;;;;;;;;;3.10;95.70;;;;;;5117479;27;19908;-81
2021/01/27 01:16:19;;;;;;;;;;;3.10;95.70;;;;;;5116562;28;19908;-81
2021/01/27 01:18:45;;;;;;;;;;;3.10;95.80;;;;;;5120202;27;19908;-81
2021/01/27 01:21:10;;;;;;;;;;;3.10;95.70;;;;;;5117250;27;19918;-81
2021/01/27 01:23:36;;;;;;;;;;;3.10;95.60;;;;;;5116753;27;19957;-80
2021/01/27 01:26:01;;;;;;;;;;;3.10;95.60;;;;;;5116755;27;19916;-81
2021/01/27 01:28:27;;;;;;;;;;;3.10;95.70;;;;;;5097891;28;20287;-81
2021/01/27 01:30:52;;;;;;;;;;;3.10;96.00;;;;;;5112315;27;19947;-82
2021/01/27 01:33:21;;;;;;;;;;;3.10;96.10;;;;;;5117695;27;19953;-81
2021/01/27 01:35:46;;;;;;;;;;;3.10;96.20;;;;;;5117432;27;19998;-81
2021/01/27 01:38:12;;;;;;;;;;;3.00;96.10;;;;;;5110959;28;20357;-81
2021/01/27 01:40:42;;;;;;;;;;;3.00;96.20;;;;;;5116521;27;19947;-81
2021/01/27 01:43:10;;;;;;;;;;;3.00;96.30;;;;;;5118058;27;19943;-81
2021/01/27 01:45:35;;;;;;;;;;;3.10;96.40;;;;;;5106805;28;19908;-81
2021/01/27 01:48:07;;;;;;;;;;;3.00;96.40;;;;;;5119107;27;19938;-81
2021/01/27 01:50:33;;;;;;;;;;;3.00;96.60;;;;;;5099021;28;19908;-81
2021/01/27 01:52:59;;;;;;;;;;;3.00;96.80;;;;;;5099614;27;19908;-81
2021/01/27 01:55:25;;;;;;;;;;;3.00;97.00;;;;;;5116710;27;19908;-81
2021/01/27 01:57:52;;;;;;;;;;;3.00;97.20;;;;;;5116094;27;20405;-81
2021/01/27 02:00:18;;;;;;;;;;;3.00;97.50;;;;;;5118416;27;19920;-81
2021/01/27 02:02:44;;;;;;;;;;;2.90;97.70;;;;;;5099595;28;19912;-81
2021/01/27 02:05:14;;;;;;;;;;;2.90;97.70;;;;;;5117764;27;19951;-81
2021/01/27 02:07:40;;;;;;;;;;;2.90;97.90;;;;;;5116815;27;20002;-81
2021/01/27 02:10:06;;;;;;;;;;;2.90;98.10;;;;;;5117885;27;20350;-81
2021/01/27 02:12:41;;;;;;;;;;;2.90;98.40;;;;;;5097942;28;19912;-82
2021/01/27 02:15:15;;;;;;;;;;;2.90;98.60;;;;;;5097691;28;19908;-81
2021/01/27 02:17:44;;;;;;;;;;;2.90;98.70;;;;;;5101035;27;19946;-81
2021/01/27 02:20:19;;;;;;;;;;;2.80;98.80;;;;;;5116970;27;19934;-81
2021/01/27 02:23:00;;;;;;;;;;;2.80;98.90;;;;;;5096870;28;19908;-81
2021/01/27 02:25:44;;;;;;;;;;;2.80;98.80;;;;;;5115706;27;19907;-81
2021/01/27 02:28:28;;;;;;;;;;;2.80;98.80;;;;;;5114987;28;20381;-81
2021/01/27 02:31:04;;;;;;;;;;;2.80;99.10;;;;;;5098791;27;19907;-81
2021/01/27 02:33:49;;;;;;;;;;;2.80;99.20;;;;;;5098564;28;19912;-81
2021/01/27 02:36:36;;;;;;;;;;;2.80;99.40;;;;;;5114217;28;20003;-81
2021/01/27 02:39:10;;;;;;;;;;;2.80;99.40;;;;;;5097747;28;19994;-81
2021/01/27 02:41:41;;;;;;;;;;;2.80;99.40;;;;;;5115341;28;19907;-81
2021/01/27 02:44:09;;;;;;;;;;;2.80;99.50;;;;;;5096706;28;20294;-81
2021/01/27 02:46:39;;;;;;;;;;;2.80;99.30;;;;;;5119422;27;20294;-81
2021/01/27 02:49:17;;;;;;;;;;;2.80;99.10;;;;;;5116740;27;19908;-81
2021/01/27 02:51:49;;;;;;;;;;;2.80;99.10;;;;;;5117677;27;19908;-81
2021/01/27 02:54:18;;;;;;;;;;;2.80;99.10;;;;;;5115667;27;19916;-81
2021/01/27 02:56:52;;;;;;;;;;;2.80;99.20;;;;;;5115868;27;19915;-80
2021/01/27 02:59:18;;;;;;;;;;;2.80;99.20;;;;;;5114361;28;19908;-80
2021/01/27 03:01:47;;;;;;;;;;;2.80;99.40;;;;;;5098422;27;19914;-81
2021/01/27 03:04:18;;;;;;;;;;;2.70;99.40;;;;;;5096147;28;19914;-81
2021/01/27 03:06:45;;;;;;;;;;;2.80;99.40;;;;;;5099676;27;20002;-80
2021/01/27 03:09:12;;;;;;;;;;;2.70;99.50;;;;;;5097278;28;19907;-81
2021/01/27 03:11:38;;;;;;;;;;;2.70;99.70;;;;;;5116093;27;19994;-81
2021/01/27 03:14:04;;;;;;;;;;;2.70;99.70;;;;;;5114668;27;19978;-81
2021/01/27 03:16:35;;;;;;;;;;;2.70;99.80;;;;;;5114139;28;20332;-81
2021/01/27 03:19:09;;;;;;;;;;;2.70;99.70;;;;;;5119594;27;20002;-80
2021/01/27 03:21:39;;;;;;;;;;;2.70;99.70;;;;;;5104314;27;20063;-81
2021/01/27 03:24:08;;;;;;;;;;;2.70;99.70;;;;;;5119020;27;20011;-81
2021/01/27 03:26:52;;;;;;;;;;;2.60;99.70;;;;;;5095795;28;20309;-80
2021/01/27 03:29:24;;;;;;;;;;;2.60;99.70;;;;;;5119154;27;19923;-81
2021/01/27 03:31:55;;;;;;;;;;;2.70;99.80;;;;;;5097823;28;19991;-81
2021/01/27 03:34:27;;;;;;;;;;;2.60;99.90;;;;;;5117228;27;19956;-81
2021/01/27 03:36:55;;;;;;;;;;;2.70;99.90;;;;;;5096822;28;19907;-81
2021/01/27 03:39:22;;;;;;;;;;;2.60;99.90;;;;;;5115120;27;19991;-81
2021/01/27 03:41:50;;;;;;;;;;;2.60;99.90;;;;;;5097973;28;20276;-81
2021/01/27 03:44:22;;;;;;;;;;;2.60;99.90;;;;;;5113709;27;19908;-81
2021/01/27 03:46:53;;;;;;;;;;;2.60;99.90;;;;;;5108324;28;19943;-80
2021/01/27 03:49:22;;;;;;;;;;;2.60;99.90;;;;;;5115582;27;19930;-80
2021/01/27 03:51:51;;;;;;;;;;;2.60;99.90;;;;;;5115131;27;19913;-81
2021/01/27 03:54:18;;;;;;;;;;;2.70;99.90;;;;;;5096299;28;19999;-81
2021/01/27 03:56:52;;;;;;;;;;;2.60;99.90;;;;;;5106660;28;19907;-82
2021/01/27 03:59:17;;;;;;;;;;;2.60;99.90;;;;;;5113165;28;19961;-81
2021/01/27 04:01:44;;;;;;;;;;;2.60;99.90;;;;;;5116067;27;20358;-80
2021/01/27 04:04:09;;;;;;;;;;;2.60;99.90;;;;;;5096356;28;19911;-81
2021/01/27 04:06:34;;;;;;;;;;;2.60;99.90;;;;;;5117062;27;20375;-81
2021/01/27 04:09:00;;;;;;;;;;;2.60;99.90;;;;;;5114569;27;19915;-81
2021/01/27 04:11:25;;;;;;;;;;;2.60;99.90;;;;;;5113823;27;19908;-81
2021/01/27 04:13:51;;;;;;;;;;;2.60;99.90;;;;;;5096706;28;20367;-81
2021/01/27 04:16:16;;;;;;;;;;;2.60;99.90;;;;;;5113264;28;20359;-81
2021/01/27 04:18:42;;;;;;;;;;;2.60;99.90;;;;;;5094685;28;19907;-81
2021/01/27 04:21:07;;;;;;;;;;;2.60;99.90;;;;;;5113039;28;19908;-81
2021/01/27 04:23:33;;;;;;;;;;;2.60;99.90;;;;;;5113188;28;19943;-82
2021/01/27 04:25:58;;;;;;;;;;;2.60;99.90;;;;;;5112760;28;19915;-81
2021/01/27 04:28:23;;;;;;;;;;;2.60;99.90;;;;;;5112995;28;19916;-81
2021/01/27 04:30:49;;;;;;;;;;;2.60;99.90;;;;;;5119639;28;20358;-81
2021/01/27 04:33:14;;;;;;;;;;;2.60;99.90;;;;;;5115625;28;21035;-81
2021/01/27 04:35:40;;;;;;;;;;;2.50;99.90;;;;;;5096255;28;19907;-82
2021/01/27 04:38:06;;;;;;;;;;;2.50;99.90;;;;;;5094589;28;19908;-81
2021/01/27 04:40:37;;;;;;;;;;;2.50;99.90;;;;;;5113577;28;19998;-81
2021/01/27 04:43:21;;;;;;;;;;;2.50;99.90;;;;;;5094877;28;19914;-81
2021/01/27 04:45:49;;;;;;;;;;;2.50;99.90;;;;;;5115448;28;19908;-81
2021/01/27 04:48:19;;;;;;;;;;;2.50;99.90;;;;;;5117294;28;19912;-81
2021/01/27 04:50:57;;;;;;;;;;;2.50;99.90;;;;;;5096416;28;19912;-81
2021/01/27 04:53:23;;;;;;;;;;;2.40;99.90;;;;;;5094412;28;19914;-81
2021/01/27 04:56:07;;;;;;;;;;;2.40;99.90;;;;;;5113651;28;20006;-81
2021/01/27 04:58:44;;;;;;;;;;;2.40;99.90;;;;;;5095491;28;19988;-81
2021/01/27 05:01:19;;;;;;;;;;;2.40;99.90;;;;;;5112699;28;20303;-81
2021/01/27 05:03:47;;;;;;;;;;;2.40;99.90;;;;;;5115360;28;19912;-80
2021/01/27 05:06:14;;;;;;;;;;;2.40;99.90;;;;;;5096751;28;20276;-81
2021/01/27 05:08:42;;;;;;;;;;;2.40;99.90;;;;;;5116603;28;19919;-81
2021/01/27 05:11:10;;;;;;;;;;;2.30;99.90;;;;;;5113799;28;19961;-81
2021/01/27 05:13:40;;;;;;;;;;;2.30;99.90;;;;;;5113515;28;19916;-81
2021/01/27 05:16:10;;;;;;;;;;;2.30;99.90;;;;;;5094680;28;20367;-81
2021/01/27 05:18:36;;;;;;;;;;;2.20;99.90;;;;;;5116844;28;19916;-81
2021/01/27 05:21:01;;;;;;;;;;;2.20;99.90;;;;;;5097086;28;19911;-81
2021/01/27 05:23:27;;;;;;;;;;;2.10;99.90;;;;;;5096712;28;19996;-82
2021/01/27 05:25:52;;;;;;;;;;;2.00;99.90;;;;;;5117110;27;19990;-81
2021/01/27 05:28:21;;;;;;;;;;;2.00;99.90;;;;;;5116233;28;19919;-81
2021/01/27 05:30:51;;;;;;;;;;;2.00;99.90;;;;;;5119790;27;19908;-82
2021/01/27 05:33:17;;;;;;;;;;;1.90;99.90;;;;;;5116737;27;19968;-82
2021/01/27 05:35:42;;;;;;;;;;;1.90;99.90;;;;;;5117721;27;20407;-82
2021/01/27 05:38:28;;;;;;;;;;;1.90;99.90;;;;;;5097755;28;19912;-81
2021/01/27 05:41:03;;;;;;;;;;;1.90;99.90;;;;;;5097872;27;19960;-81
2021/01/27 05:43:28;;;;;;;;;;;1.90;99.90;;;;;;5098314;28;19908;-82
2021/01/27 05:45:56;;;;;;;;;;;1.90;99.90;;;;;;5127308;27;19930;-82
2021/01/27 05:48:29;;;;;;;;;;;1.90;99.90;;;;;;5118659;27;19923;-81
2021/01/27 05:51:00;;;;;;;;;;;1.90;99.90;;;;;;5116107;28;19950;-81
2021/01/27 05:53:27;;;;;;;;;;;1.90;99.90;;;;;;5099124;28;19907;-82
2021/01/27 05:55:59;;;;;;;;;;;1.90;99.90;;;;;;5116666;27;19916;-81
2021/01/27 05:58:25;;;;;;;;;;;1.90;99.90;;;;;;5117060;27;20320;-82
2021/01/27 06:00:51;;;;;;;;;;;1.90;99.90;;;;;;5115779;28;19920;-83
2021/01/27 06:03:23;;;;;;;;;;;1.90;99.90;;;;;;5118384;27;19916;-83
2021/01/27 06:05:50;;;;;;;;;;;1.90;99.90;;;;;;5117846;27;19950;-82
2021/01/27 06:08:18;;;;;;;;;;;1.80;99.90;;;;;;5104388;27;19973;-84
2021/01/27 06:10:43;;;;;;;;;;;1.90;99.90;;;;;;5115682;27;20006;-83
2021/01/27 06:13:15;;;;;;;;;;;1.90;99.90;;;;;;5116006;28;20000;-85
2021/01/27 06:15:40;;;;;;;;;;;1.90;99.90;;;;;;5097767;28;20256;-85
2021/01/27 06:18:17;;;;;;;;;;;1.90;99.90;;;;;;5122629;27;19907;-84
2021/01/27 06:20:43;;;;;;;;;;;1.90;99.90;;;;;;5136701;27;19908;-83
2021/01/27 06:23:25;;;;;;;;;;;1.90;99.90;;;;;;5118257;27;20002;-84
2021/01/27 06:26:00;;;;;;;;;;;1.90;99.90;;;;;;5118099;27;20294;-84
2021/01/27 06:28:38;;;;;;;;;;;1.90;99.90;;;;;;5135366;27;19937;-85
2021/01/27 06:31:10;;;;;;;;;;;1.90;99.90;;;;;;5116964;27;19951;-85
2021/01/27 06:33:54;;;;;;;;;;;1.90;99.90;;;;;;5121978;27;19962;-85
2021/01/27 06:36:25;;;;;;;;;;;1.80;99.90;;;;;;5112133;27;19921;-86
2021/01/27 06:39:00;;;;;;;;;;;1.80;99.90;;;;;;5117543;27;20361;-87
2021/01/27 06:41:34;;;;;;;;;;;1.80;99.90;;;;;;5117646;27;19915;-86
2021/01/27 06:44:02;;;;;;;;;;;1.90;99.90;;;;;;5108274;27;20005;-84
2021/01/27 06:46:47;;;;;;;;;;;1.80;99.90;;;;;;5105797;27;19925;-86
2021/01/27 06:49:31;;;;;;;;;;;1.90;99.90;;;;;;5097535;28;19915;-85
2021/01/27 06:52:05;;;;;;;;;;;1.90;99.90;;;;;;5107675;27;19907;-83
2021/01/27 06:54:49;;;;;;;;;;;1.90;99.90;;;;;;5126758;27;20343;-85
2021/01/27 06:57:19;;;;;;;;;;;1.90;99.90;;;;;;5118133;27;20049;-85
2021/01/27 07:00:03;;;;;;;;;;;1.90;99.90;;;;;;5115063;28;19923;-85
2021/01/27 07:02:51;;;;;;;;;;;1.90;99.90;;;;;;5115374;28;19908;-84
2021/01/27 07:05:25;;;;;;;;;;;2.00;99.90;;;;;;5097191;28;19943;-84
2021/01/27 07:07:51;;;;;;;;;;;2.00;99.90;;;;;;5097185;28;19912;-84
2021/01/27 07:10:36;;;;;;;;;;;2.00;99.90;;;;;;5115359;28;19930;-84
2021/01/27 07:13:21;;;;;;;;;;;2.00;99.90;;;;;;5116308;28;19911;-84
2021/01/27 07:16:22;;;;;;;;;;;2.00;99.90;;;;;;5115967;28;19908;-84
2021/01/27 07:19:10;;;;;;;;;;;2.00;99.90;;;;;;5053069;28;19913;-83
2021/01/27 07:21:40;;;;;;;;;;;2.00;99.90;;;;;;5091969;27;19957;-84
2021/01/27 07:24:14;;;;;;;;;;;2.00;99.90;;;;;;5135487;27;20331;-83
2021/01/27 07:26:40;;;;;;;;;;;2.10;99.90;;;;;;5135273;27;19907;-84
2021/01/27 07:29:08;;;;;;;;;;;2.10;99.90;;;;;;5135193;27;19908;-82
2021/01/27 07:31:34;;;;;;;;;;;2.10;99.90;;;;;;5135226;27;19917;-84
2021/01/27 07:34:04;;;;;;;;;;;2.10;99.90;;;;;;5135400;27;20001;-83
2021/01/27 07:36:52;;;;;;;;;;;2.10;99.90;;;;;;5116590;27;19908;-84
2021/01/27 07:39:25;;;;;;;;;;;2.10;99.90;;;;;;5116771;27;20268;-83
2021/01/27 07:41:57;;;;;;;;;;;2.10;99.90;;;;;;5135005;27;19908;-83
2021/01/27 07:44:23;;;;;;;;;;;2.10;99.90;;;;;;5134984;27;19934;-83
2021/01/27 07:46:58;;;;;;;;;;;2.10;99.90;;;;;;5116416;27;19907;-83
2021/01/27 07:49:32;;;;;;;;;;;2.10;99.90;;;;;;5135086;27;19911;-83
2021/01/27 07:51:59;;;;;;;;;;;2.10;99.90;;;;;;5107444;27;19912;-83
2021/01/27 07:54:33;;;;;;;;;;;2.10;99.90;;;;;;5101817;28;19915;-83
2021/01/27 07:57:03;;;;;;;;;;;2.10;99.90;;;;;;5126404;27;19919;-83
2021/01/27 07:59:29;;;;;;;;;;;2.20;99.90;;;;;;5116592;27;19915;-83
2021/01/27 08:02:03;;;;;;;;;;;2.20;99.90;;;;;;5114970;28;19908;-85
2021/01/27 08:04:48;;;;;;;;;;;2.20;99.90;;;;;;5124273;27;19912;-85
2021/01/27 08:07:25;;;;;;;;;;;2.20;99.90;;;;;;5129964;27;19915;-85
2021/01/27 08:09:51;;;;;;;;;;;2.20;99.90;;;;;;5123295;27;19919;-85
2021/01/27 08:12:27;;;;;;;;;;;2.20;99.90;;;;;;5124304;27;19916;-84
2021/01/27 08:15:07;;;;;;;;;;;2.20;99.90;;;;;;5129378;27;19908;-85
2021/01/27 08:17:37;;;;;;;;;;;2.20;99.90;;;;;;5113079;28;19998;-85
2021/01/27 08:20:18;;;;;;;;;;;2.30;99.90;;;;;;5114085;28;20300;-83
2021/01/27 08:22:44;;;;;;;;;;;2.30;99.90;;;;;;5095522;28;20298;-83
2021/01/27 08:25:10;;;;;;;;;;;2.30;99.90;;;;;;5096214;27;19912;-83
2021/01/27 08:27:37;;;;;;;;;;;2.30;99.90;;;;;;5102460;28;19912;-84
2021/01/27 08:30:12;;;;;;;;;;;2.30;99.90;;;;;;5113622;28;19908;-84
2021/01/27 08:32:40;;;;;;;;;;;2.30;99.90;;;;;;5090672;28;20000;-83
2021/01/27 08:35:08;;;;;;;;;;;2.30;99.90;;;;;;5128794;28;19912;-83
2021/01/27 08:37:38;;;;;;;;;;;2.30;99.90;;;;;;5099445;28;19919;-84
2021/01/27 08:40:06;;;;;;;;;;;2.30;99.90;;;;;;5123986;28;19908;-83
2021/01/27 08:42:38;;;;;;;;;;;2.40;99.90;;;;;;5106424;28;19919;-84
2021/01/27 08:45:21;;;;;;;;;;;2.40;99.90;;;;;;5115578;28;20378;-84
2021/01/27 08:47:48;;;;;;;;;;;2.40;99.90;;;;;;5133576;28;20022;-83
2021/01/27 08:50:29;;;;;;;;;;;2.40;99.90;;;;;;5133421;28;19931;-85
2021/01/27 08:53:04;;;;;;;;;;;2.40;99.90;;;;;;5106363;28;19911;-86
2021/01/27 08:55:35;;;;;;;;;;;2.40;99.90;;;;;;5103325;28;19920;-85
2021/01/27 08:58:19;;;;;;;;;;;2.40;99.90;;;;;;5121423;27;19915;-85
2021/01/27 09:00:45;;;;;;;;;;;2.40;99.90;;;;;;5126526;27;19927;-86
2021/01/27 09:03:29;;;;;;;;;;;2.40;99.90;;;;;;5121220;27;20356;-86
2021/01/27 09:05:56;;;;;;;;;;;2.50;99.90;;;;;;5108130;27;19993;-86
2021/01/27 09:08:27;;;;;;;;;;;2.50;99.90;;;;;;5108595;27;19998;-88
2021/01/27 09:10:54;;;;;;;;;;;2.50;99.90;;;;;;5129005;27;19969;-86
2021/01/27 09:13:22;;;;;;;;;;;2.50;99.90;;;;;;5136000;27;19918;-87
2021/01/27 09:16:17;;;;;;;;;;;2.50;99.90;;;;;;5136623;27;19922;-87
2021/01/27 09:18:57;;;;;;;;;;;2.50;99.90;;;;;;5097962;27;20056;-86
2021/01/27 09:21:23;;;;;;;;;;;2.60;99.90;;;;;;5099054;28;20006;-86
2021/01/27 09:23:57;;;;;;;;;;;2.60;99.90;;;;;;5099020;28;19911;-87
2021/01/27 09:26:31;;;;;;;;;;;2.60;99.90;;;;;;5117439;28;20438;-87
2021/01/27 09:29:05;;;;;;;;;;;2.60;99.90;;;;;;5098994;28;19919;-86
2021/01/27 09:31:31;;;;;;;;;;;2.60;99.90;;;;;;5100008;27;20000;-87
2021/01/27 09:33:56;;;;;;;;;;;2.60;99.90;;;;;;5103955;27;19969;-88
2021/01/27 09:36:26;;;;;;;;;;;2.60;99.90;;;;;;5101886;28;19923;-86
2021/01/27 09:38:52;;;;;;;;;;;2.60;99.90;;;;;;5118205;28;19995;-84
2021/01/27 09:41:28;;;;;;;;;;;2.60;99.90;;;;;;5099919;28;19968;-86
2021/01/27 09:43:54;;;;;;;;;;;2.70;99.90;;;;;;5134433;27;19972;-87
2021/01/27 09:46:29;;;;;;;;;;;2.70;99.90;;;;;;5134695;27;19911;-86
2021/01/27 09:48:55;;;;;;;;;;;2.70;99.90;;;;;;5134375;27;20375;-87
2021/01/27 09:51:22;;;;;;;;;;;2.70;99.90;;;;;;5118873;28;19914;-86
2021/01/27 09:53:47;;;;;;;;;;;2.80;99.90;;;;;;5099184;28;19961;-87
2021/01/27 09:56:17;;;;;;;;;;;2.80;99.90;;;;;;5098724;28;19912;-86
2021/01/27 09:58:43;;;;;;;;;;;2.80;99.90;;;;;;5098624;28;19925;-87
2021/01/27 10:01:16;;;;;;;;;;;2.80;99.90;;;;;;5116639;28;20006;-85
2021/01/27 10:03:43;;;;;;;;;;;2.80;99.90;;;;;;5116614;28;19908;-86
2021/01/27 10:06:27;;;;;;;;;;;2.90;99.90;;;;;;5116894;28;19974;-86
2021/01/27 10:08:54;;;;;;;;;;;2.90;99.90;;;;;;5097749;28;20033;-86
2021/01/27 10:11:19;;;;;;;;;;;2.90;99.90;;;;;;5097460;28;19954;-85
2021/01/27 10:13:45;;;;;;;;;;;3.00;99.90;;;;;;5116405;28;19943;-84
2021/01/27 10:16:13;;;;;;;;;;;3.00;99.90;;;;;;5098156;28;20014;-86
2021/01/27 10:18:39;;;;;;;;;;;3.00;99.90;;;;;;5097585;28;19957;-85
2021/01/27 10:21:10;;;;;;;;;;;3.00;99.90;;;;;;5131877;27;19952;-86
2021/01/27 10:23:46;;;;;;;;;;;3.10;99.90;;;;;;5115715;28;20426;-85
2021/01/27 10:26:32;;;;;;;;;;;3.10;99.90;;;;;;5131844;27;20370;-85
2021/01/27 10:29:09;;;;;;;;;;;3.20;99.90;;;;;;5123352;27;20469;-85
2021/01/27 10:31:36;;;;;;;;;;;3.20;99.90;;;;;;5115221;28;19908;-83
2021/01/27 10:34:01;;;;;;;;;;;3.20;99.90;;;;;;5115383;28;19912;-83
2021/01/27 10:36:30;;;;;;;;;;;3.20;99.90;;;;;;5097307;28;19955;-84
2021/01/27 10:39:13;;;;;;;;;;;3.30;99.90;;;;;;5116389;28;19952;-85
2021/01/27 10:41:39;;;;;;;;;;;3.20;99.90;;;;;;5097195;28;19908;-85
2021/01/27 10:44:23;;;;;;;;;;;3.30;99.90;;;;;;5115902;28;19915;-86
2021/01/27 10:46:50;;;;;;;;;;;3.30;99.90;;;;;;5115438;28;19965;-86
2021/01/27 10:49:15;;;;;;;;;;;3.30;99.90;;;;;;5132776;27;20379;-85
2021/01/27 10:51:42;;;;;;;;;;;3.30;99.90;;;;;;5121239;27;19908;-86
2021/01/27 10:54:08;;;;;;;;;;;3.40;99.90;;;;;;5114420;27;20003;-85
2021/01/27 10:56:33;;;;;;;;;;;3.40;99.90;;;;;;5097113;28;19977;-86
2021/01/27 10:58:58;;;;;;;;;;;3.40;99.90;;;;;;5115414;28;19907;-85
2021/01/27 11:01:24;;;;;;;;;;;3.40;99.90;;;;;;5097055;28;19927;-84
2021/01/27 11:03:49;;;;;;;;;;;3.40;99.90;;;;;;5097071;28;19908;-83
2021/01/27 11:06:16;;;;;;;;;;;3.50;99.90;;;;;;5121088;27;19912;-83
2021/01/27 11:08:43;;;;;;;;;;;3.50;99.90;;;;;;5119105;27;19951;-85
2021/01/27 11:11:08;;;;;;;;;;;3.50;99.90;;;;;;5105449;27;20053;-83
2021/01/27 11:13:35;;;;;;;;;;;3.60;99.90;;;;;;5107360;27;20391;-83
2021/01/27 11:16:02;;;;;;;;;;;3.60;99.90;;;;;;5115997;27;20332;-83
2021/01/27 11:18:27;;;;;;;;;;;3.60;99.90;;;;;;5106460;28;19957;-83
2021/01/27 11:20:53;;;;;;;;;;;3.60;99.90;;;;;;5112774;27;19907;-83
2021/01/27 11:23:20;;;;;;;;;;;3.70;99.90;;;;;;5124007;27;19998;-83
2021/01/27 11:25:46;;;;;;;;;;;3.70;99.90;;;;;;5096455;28;19915;-84
2021/01/27 11:28:11;;;;;;;;;;;3.70;99.90;;;;;;5096764;28;19911;-84
2021/01/27 11:30:36;;;;;;;;;;;3.80;99.90;;;;;;5096788;28;19915;-84
2021/01/27 11:33:02;;;;;;;;;;;3.80;99.90;;;;;;5095391;28;19964;-83
2021/01/27 11:35:28;;;;;;;;;;;3.80;99.90;;;;;;5115092;28;20393;-83
2021/01/27 11:37:53;;;;;;;;;;;3.80;99.90;;;;;;5096937;28;19907;-82
2021/01/27 11:40:20;;;;;;;;;;;3.90;99.90;;;;;;5114662;28;19961;-83
2021/01/27 11:42:46;;;;;;;;;;;3.90;99.90;;;;;;5096778;28;19908;-83
2021/01/27 11:45:12;;;;;;;;;;;3.90;99.90;;;;;;5114836;28;19914;-83
2021/01/27 11:47:37;;;;;;;;;;;4.00;99.90;;;;;;5114965;28;19934;-83
2021/01/27 11:50:03;;;;;;;;;;;4.00;99.90;;;;;;5096522;28;19953;-83
2021/01/27 11:52:29;;;;;;;;;;;4.00;99.90;;;;;;5096426;28;19908;-83
2021/01/27 11:54:54;;;;;;;;;;;4.10;99.90;;;;;;5096560;28;19907;-83
2021/01/27 11:57:20;;;;;;;;;;;4.10;99.90;;;;;;5113431;28;19908;-82
2021/01/27 11:59:45;;;;;;;;;;;4.10;99.90;;;;;;5119152;27;19926;-82
2021/01/27 12:02:11;;;;;;;;;;;4.10;99.90;;;;;;5112889;27;20382;-82
2021/01/27 12:04:36;;;;;;;;;;;4.20;99.90;;;;;;5115637;27;19998;-83
2021/01/27 12:07:03;;;;;;;;;;;4.20;99.90;;;;;;5094298;28;19920;-82
2021/01/27 12:09:29;;;;;;;;;;;4.30;99.90;;;;;;5116012;27;20027;-82
2021/01/27 12:11:56;;;;;;;;;;;4.30;99.90;;;;;;5099988;27;19994;-83
2021/01/27 12:14:21;;;;;;;;;;;4.30;99.90;;;;;;5095344;28;20328;-82
2021/01/27 12:16:47;;;;;;;;;;;4.40;99.90;;;;;;5118164;27;19907;-82
2021/01/27 12:19:12;;;;;;;;;;;4.40;99.90;;;;;;5117725;27;19918;-82
2021/01/27 12:21:38;;;;;;;;;;;4.50;99.90;;;;;;5122034;28;20402;-82
2021/01/27 12:24:04;;;;;;;;;;;4.50;99.90;;;;;;5096162;28;19938;-82
2021/01/27 12:26:30;;;;;;;;;;;4.60;99.90;;;;;;5116840;27;20048;-82
2021/01/27 12:28:55;;;;;;;;;;;4.60;99.90;;;;;;5114462;27;19997;-82
2021/01/27 12:31:21;;;;;;;;;;;4.60;99.90;;;;;;5102006;28;20391;-82
2021/01/27 12:33:46;;;;;;;;;;;4.70;99.90;;;;;;5094160;28;19990;-82
2021/01/27 12:36:12;;;;;;;;;;;4.70;99.90;;;;;;5121183;28;19954;-82
2021/01/27 12:38:37;;;;;;;;;;;4.80;99.90;;;;;;5115427;28;19915;-82
2021/01/27 12:41:03;;;;;;;;;;;4.70;99.90;;;;;;5117884;28;19914;-81
2021/01/27 12:43:28;;;;;;;;;;;4.80;99.90;;;;;;5099734;28;19947;-82
2021/01/27 12:45:54;;;;;;;;;;;4.80;99.90;;;;;;5096630;28;20275;-82
2021/01/27 12:48:20;;;;;;;;;;;4.90;99.90;;;;;;5102622;28;20363;-82
2021/01/27 12:50:46;;;;;;;;;;;4.90;99.90;;;;;;5098630;28;19908;-82
2021/01/27 12:53:11;;;;;;;;;;;4.90;99.90;;;;;;5095467;28;19918;-82
2021/01/27 12:55:36;;;;;;;;;;;4.90;99.90;;;;;;5095654;28;19907;-82
2021/01/27 12:58:03;;;;;;;;;;;4.90;99.90;;;;;;5100459;28;20395;-81
2021/01/27 13:00:28;;;;;;;;;;;5.00;99.90;;;;;;5117285;28;20379;-82
2021/01/27 13:02:54;;;;;;;;;;;5.00;99.90;;;;;;5114599;28;19933;-82
2021/01/27 13:05:21;;;;;;;;;;;5.00;99.90;;;;;;5095002;28;20287;-82
2021/01/27 13:07:47;;;;;;;;;;;5.00;99.90;;;;;;5115765;28;19915;-82
2021/01/27 13:10:13;;;;;;;;;;;5.00;99.90;;;;;;5120422;28;19920;-81
2021/01/27 13:12:39;;;;;;;;;;;5.10;99.90;;;;;;5093873;28;19958;-82
2021/01/27 13:15:12;;;;;;;;;;;5.10;99.90;;;;;;5103937;28;19961;-82
2021/01/27 13:17:38;;;;;;;;;;;5.10;99.90;;;;;;5116753;28;20431;-82
2021/01/27 13:20:04;;;;;;;;;;;5.10;99.90;;;;;;5100411;28;19998;-82
2021/01/27 13:22:29;;;;;;;;;;;5.10;99.90;;;;;;5113557;28;19908;-82
2021/01/27 13:24:55;;;;;;;;;;;5.10;99.90;;;;;;5096071;28;20010;-82
2021/01/27 13:27:20;;;;;;;;;;;5.10;99.90;;;;;;5101455;28;19918;-82
2021/01/27 13:29:46;;;;;;;;;;;5.10;99.90;;;;;;5116737;28;19907;-83
2021/01/27 13:32:11;;;;;;;;;;;5.10;99.90;;;;;;5113226;28;19912;-82
2021/01/27 13:34:37;;;;;;;;;;;5.20;99.90;;;;;;5114563;28;19916;-82
2021/01/27 13:37:02;;;;;;;;;;;5.20;99.90;;;;;;5116298;28;19958;-83
2021/01/27 13:39:28;;;;;;;;;;;5.20;99.90;;;;;;5099521;28;20639;-83
2021/01/27 13:41:53;;;;;;;;;;;5.20;99.90;;;;;;5112900;28;20351;-83
2021/01/27 13:44:19;;;;;;;;;;;5.30;99.90;;;;;;5095816;28;19930;-83
2021/01/27 13:46:44;;;;;;;;;;;5.30;99.90;;;;;;5098361;28;19933;-83
2021/01/27 13:49:10;;;;;;;;;;;5.30;99.90;;;;;;5113850;28;19959;-83
2021/01/27 13:51:35;;;;;;;;;;;5.30;99.90;;;;;;5100921;28;19907;-83
2021/01/27 13:54:01;;;;;;;;;;;5.40;99.90;;;;;;5098419;27;19934;-82
2021/01/27 13:56:26;;;;;;;;;;;5.40;99.90;;;;;;5131112;27;19927;-83
2021/01/27 13:58:51;;;;;;;;;;;5.50;99.90;;;;;;5127053;27;19918;-83
2021/01/27 14:01:17;;;;;;;;;;;5.50;99.90;;;;;;5113133;27;20380;-83
2021/01/27 14:03:42;;;;;;;;;;;5.50;99.90;;;;;;5115739;28;19990;-83
2021/01/27 14:06:08;;;;;;;;;;;5.50;99.90;;;;;;5094421;28;20344;-82
2021/01/27 14:08:35;;;;;;;;;;;5.60;99.90;;;;;;5106363;27;20407;-83
2021/01/27 14:11:01;;;;;;;;;;;5.60;99.90;;;;;;5112114;27;19998;-83
2021/01/27 14:13:26;;;;;;;;;;;5.60;99.90;;;;;;5116950;27;20000;-83
2021/01/27 14:15:52;;;;;;;;;;;5.60;99.90;;;;;;5106781;27;19915;-84
2021/01/27 14:18:17;;;;;;;;;;;5.70;99.90;;;;;;5120056;27;19908;-84
2021/01/27 14:20:42;;;;;;;;;;;5.70;99.90;;;;;;5119072;27;20373;-84
2021/01/27 14:23:08;;;;;;;;;;;5.70;99.90;;;;;;5097029;28;20339;-84
2021/01/27 14:25:33;;;;;;;;;;;5.70;99.90;;;;;;5099323;28;19990;-84
2021/01/27 14:27:59;;;;;;;;;;;5.70;99.90;;;;;;5117282;27;19912;-85
2021/01/27 14:30:26;;;;;;;;;;;5.70;99.90;;;;;;5114285;27;19907;-85
2021/01/27 14:32:52;;;;;;;;;;;5.70;99.90;;;;;;5112907;28;19914;-85
2021/01/27 14:35:18;;;;;;;;;;;5.80;99.90;;;;;;5117408;27;20300;-85
2021/01/27 14:37:44;;;;;;;;;;;5.80;99.90;;;;;;5115423;27;19921;-85
2021/01/27 14:40:10;;;;;;;;;;;5.80;99.90;;;;;;5102591;27;20006;-86
2021/01/27 14:42:35;;;;;;;;;;;5.80;99.90;;;;;;5113798;28;20010;-85